createdAt,value
2018-06-04T00:02:25.575Z,15.00
2018-06-04T00:04:54.757Z,15.00
2018-06-04T00:07:23.925Z,15.00
2018-06-04T00:09:52.649Z,14.90
2018-06-04T00:12:21.675Z,14.90
2018-06-04T00:14:50.174Z,15.00
2018-06-04T00:17:18.602Z,15.00
2018-06-04T00:19:48.408Z,15.00
2018-06-04T00:22:16.785Z,15.00
2018-06-04T00:24:45.734Z,15.00
2018-06-04T00:27:14.165Z,15.00
2018-06-04T00:29:42.535Z,15.00
2018-06-04T00:32:10.928Z,14.90
2018-06-04T00:34:39.276Z,14.80
2018-06-04T00:37:08.484Z,14.80
2018-06-04T00:39:37.043Z,14.80
2018-06-04T00:42:05.414Z,14.80
2018-06-04T00:44:35.588Z,14.80
2018-06-04T00:47:04.409Z,14.80
2018-06-04T00:49:41.493Z,14.80
2018-06-04T00:52:10.101Z,14.90
2018-06-04T00:54:38.519Z,14.80
2018-06-04T00:57:06.973Z,14.80
2018-06-04T00:59:35.416Z,14.70
2018-06-04T01:02:04.577Z,14.70
2018-06-04T01:04:33.018Z,14.60
2018-06-04T01:07:01.449Z,14.60
2018-06-04T01:09:29.918Z,14.60
2018-06-04T01:11:58.876Z,14.50
2018-06-04T01:14:27.265Z,14.60
2018-06-04T01:16:55.612Z,14.50
2018-06-04T01:19:24.076Z,14.50
2018-06-04T01:21:52.509Z,14.50
2018-06-04T01:24:20.894Z,14.50
2018-06-04T01:26:49.278Z,14.40
2018-06-04T01:29:17.616Z,14.50
2018-06-04T01:31:46.018Z,14.50
2018-06-04T01:34:14.949Z,14.50
2018-06-04T01:36:43.905Z,14.60
2018-06-04T01:39:12.445Z,14.40
2018-06-04T01:41:40.877Z,14.50
2018-06-04T01:44:09.281Z,14.50
2018-06-04T01:49:06.431Z,14.30
2018-06-04T01:51:36.171Z,14.50
2018-06-04T01:59:00.569Z,14.40
2018-06-04T02:01:28.922Z,14.40
2018-06-04T02:03:57.271Z,14.30
2018-06-04T02:06:25.682Z,14.30
2018-06-04T02:08:54.110Z,14.30
2018-06-04T02:11:22.541Z,14.20
2018-06-04T02:13:51.043Z,14.30
2018-06-04T02:16:19.394Z,14.30
2018-06-04T02:18:47.751Z,14.30
2018-06-04T02:21:16.184Z,14.30
2018-06-04T02:23:44.578Z,14.40
2018-06-04T02:26:12.969Z,14.20
2018-06-04T02:28:41.382Z,14.20
2018-06-04T02:31:09.724Z,14.20
2018-06-04T02:33:38.076Z,14.10
2018-06-04T02:38:35.027Z,14.00
2018-06-04T02:41:03.375Z,14.00
2018-06-04T02:43:31.710Z,14.00
2018-06-04T02:46:00.055Z,14.00
2018-06-04T02:48:28.371Z,13.90
2018-06-04T02:50:56.712Z,13.90
2018-06-04T02:53:25.168Z,13.90
2018-06-04T02:55:54.863Z,13.80
2018-06-04T02:58:23.213Z,13.80
2018-06-04T03:00:51.594Z,13.70
2018-06-04T03:03:19.929Z,13.80
2018-06-04T03:05:48.324Z,13.80
2018-06-04T03:08:16.706Z,13.80
2018-06-04T03:10:45.875Z,13.90
2018-06-04T03:13:14.198Z,13.90
2018-06-04T03:15:42.542Z,14.10
2018-06-04T03:18:10.928Z,14.00
2018-06-04T03:20:39.813Z,14.00
2018-06-04T03:23:08.173Z,14.00
2018-06-04T03:25:36.576Z,13.80
2018-06-04T03:28:05.637Z,13.70
2018-06-04T03:30:34.069Z,13.60
2018-06-04T03:33:03.386Z,13.70
2018-06-04T03:35:31.753Z,13.70
2018-06-04T03:38:00.757Z,13.70
2018-06-04T03:40:29.124Z,13.80
2018-06-04T03:42:57.485Z,13.80
2018-06-04T03:45:25.817Z,13.80
2018-06-04T03:47:54.196Z,13.80
2018-06-04T03:50:22.675Z,13.70
2018-06-04T03:52:52.133Z,13.70
2018-06-04T03:57:48.634Z,13.90
2018-06-04T04:00:17.007Z,13.90
2018-06-04T04:02:45.460Z,14.00
2018-06-04T04:05:13.789Z,14.00
2018-06-04T04:07:43.498Z,14.00
2018-06-04T04:10:11.838Z,14.10
2018-06-04T04:12:40.183Z,14.10
2018-06-04T04:17:36.635Z,14.30
2018-06-04T04:20:05.041Z,14.40
2018-06-04T04:22:33.418Z,14.40
2018-06-04T04:25:03.460Z,14.50
2018-06-04T04:27:31.799Z,14.50
2018-06-04T04:30:00.154Z,14.50
2018-06-04T04:32:28.530Z,14.60
2018-06-04T04:34:58.087Z,14.60
2018-06-04T04:37:26.470Z,14.60
2018-06-04T04:39:55.170Z,14.80
2018-06-04T04:42:23.563Z,14.90
2018-06-04T04:44:52.708Z,15.10
2018-06-04T04:47:22.793Z,15.30
2018-06-04T04:49:51.176Z,15.60
2018-06-04T04:52:19.575Z,15.70
2018-06-04T04:54:47.991Z,15.90
2018-06-04T04:57:16.383Z,16.10
2018-06-04T04:59:44.750Z,16.30
2018-06-04T05:02:13.155Z,16.30
2018-06-04T05:04:41.824Z,16.20
2018-06-04T05:07:10.171Z,16.10
2018-06-04T05:09:38.509Z,16.10
2018-06-04T05:12:06.928Z,16.20
2018-06-04T05:14:37.407Z,16.40
2018-06-04T05:17:06.628Z,16.50
2018-06-04T05:19:35.015Z,16.30
2018-06-04T05:22:05.118Z,16.30
2018-06-04T05:24:33.899Z,16.50
2018-06-04T05:27:02.948Z,16.80
2018-06-04T05:29:33.852Z,17.10
2018-06-04T05:32:02.245Z,17.50
2018-06-04T05:34:31.399Z,17.80
2018-06-04T05:37:00.447Z,18.00
2018-06-04T05:39:31.467Z,18.30
2018-06-04T05:42:02.693Z,18.40
2018-06-04T05:44:31.495Z,18.50
2018-06-04T05:47:00.367Z,18.70
2018-06-04T05:49:29.144Z,18.80
2018-06-04T05:51:57.560Z,18.90
2018-06-04T05:54:27.500Z,19.10
2018-06-04T05:56:56.485Z,19.30
2018-06-04T05:59:24.974Z,19.40
2018-06-04T06:01:53.414Z,19.50
2018-06-04T06:04:22.256Z,19.60
2018-06-04T06:06:50.716Z,19.60
2018-06-04T06:09:20.648Z,19.70
2018-06-04T06:11:49.136Z,20.00
2018-06-04T06:14:19.018Z,20.10
2018-06-04T06:16:47.408Z,20.30
2018-06-04T06:19:15.887Z,20.30
2018-06-04T06:21:44.348Z,20.50
2018-06-04T06:24:13.975Z,20.80
2018-06-04T06:26:43.680Z,20.90
2018-06-04T06:29:13.042Z,21.10
2018-06-04T06:31:41.546Z,21.30
2018-06-04T06:34:09.933Z,21.70
2018-06-04T06:36:38.307Z,21.80
2018-06-04T06:39:09.550Z,21.70
2018-06-04T06:41:38.327Z,21.50
2018-06-04T06:46:37.704Z,21.80
2018-06-04T06:49:06.148Z,21.90
2018-06-04T06:51:34.624Z,22.50
2018-06-04T06:54:03.078Z,23.00
2018-06-04T06:56:31.483Z,23.20
2018-06-04T06:59:01.975Z,23.70
2018-06-04T07:01:30.348Z,23.60
2018-06-04T07:04:03.925Z,23.60
2018-06-04T07:06:34.066Z,23.50
2018-06-04T07:09:03.027Z,23.80
2018-06-04T07:11:32.079Z,25.00
2018-06-04T07:14:00.429Z,24.20
2018-06-04T07:16:29.645Z,24.00
2018-06-04T07:18:59.871Z,24.30
2018-06-04T07:21:28.294Z,24.80
2018-06-04T07:24:07.834Z,24.70
2018-06-04T07:26:36.191Z,24.90
2018-06-04T07:29:04.610Z,25.40
2018-06-04T07:31:35.773Z,25.90
2018-06-04T07:34:05.181Z,25.80
2018-06-04T07:36:35.090Z,25.70
2018-06-04T07:39:04.075Z,25.60
2018-06-04T07:41:32.464Z,25.10
2018-06-04T07:44:02.278Z,25.20
2018-06-04T07:46:30.629Z,25.10
2018-06-04T07:48:59.443Z,25.10
2018-06-04T07:51:28.556Z,25.30
2018-06-04T07:53:56.945Z,25.30
2018-06-04T07:56:26.945Z,25.10
2018-06-04T07:58:55.881Z,25.30
2018-06-04T08:01:25.216Z,25.40
2018-06-04T08:03:54.443Z,25.40
2018-06-04T08:06:22.928Z,25.10
2018-06-04T08:08:52.814Z,25.10
2018-06-04T08:11:21.180Z,25.10
2018-06-04T08:13:51.142Z,25.20
2018-06-04T08:16:19.571Z,25.10
2018-06-04T08:18:48.596Z,25.50
2018-06-04T08:21:17.985Z,26.00
2018-06-04T08:23:46.376Z,25.70
2018-06-04T08:26:14.728Z,25.80
2018-06-04T08:28:48.689Z,25.60
2018-06-04T08:31:18.414Z,25.50
2018-06-04T08:33:47.808Z,25.30
2018-06-04T08:38:44.826Z,25.60
2018-06-04T08:41:13.830Z,25.40
2018-06-04T08:43:42.158Z,25.40
2018-06-04T08:46:10.510Z,25.50
2018-06-04T08:48:38.863Z,25.30
2018-06-04T08:51:07.257Z,25.40
2018-06-04T08:53:35.694Z,25.30
2018-06-04T08:56:04.058Z,25.10
2018-06-04T08:58:32.457Z,25.60
2018-06-04T09:01:02.446Z,25.90
2018-06-04T09:03:30.826Z,26.10
2018-06-04T09:05:59.784Z,26.00
2018-06-04T09:08:28.226Z,25.90
2018-06-04T09:10:56.692Z,25.70
2018-06-04T09:13:25.244Z,25.60
2018-06-04T09:15:53.627Z,25.70
2018-06-04T09:18:23.389Z,25.50
2018-06-04T09:20:51.757Z,25.40
2018-06-04T09:23:22.159Z,25.70
2018-06-04T09:25:50.571Z,25.50
2018-06-04T09:28:18.947Z,25.60
2018-06-04T09:30:47.949Z,25.60
2018-06-04T09:33:16.853Z,26.00
2018-06-04T09:35:45.886Z,26.40
2018-06-04T09:38:15.142Z,26.60
2018-06-04T09:40:44.624Z,26.60
2018-06-04T09:43:14.010Z,26.80
2018-06-04T09:45:42.363Z,27.00
2018-06-04T09:50:40.043Z,27.10
2018-06-04T09:53:11.220Z,27.00
2018-06-04T09:55:39.647Z,27.10
2018-06-04T09:58:09.151Z,26.90
2018-06-04T10:00:39.200Z,26.70
2018-06-04T10:03:07.563Z,26.80
2018-06-04T10:05:36.642Z,27.40
2018-06-04T10:08:05.051Z,27.30
2018-06-04T10:13:02.598Z,27.70
2018-06-04T10:15:30.983Z,27.80
2018-06-04T10:18:00.432Z,27.80
2018-06-04T10:20:28.871Z,27.40
2018-06-04T10:22:57.635Z,27.40
2018-06-04T10:25:26.007Z,27.20
2018-06-04T10:27:54.364Z,26.60
2018-06-04T10:30:23.605Z,26.90
2018-06-04T10:32:53.316Z,27.40
2018-06-04T10:35:22.292Z,27.30
2018-06-04T10:37:50.637Z,27.20
2018-06-04T10:40:18.935Z,27.20
2018-06-04T10:42:47.754Z,27.50
2018-06-04T10:45:16.130Z,27.80
2018-06-04T10:47:45.348Z,27.20
2018-06-04T10:50:13.754Z,27.10
2018-06-04T10:52:42.089Z,27.30
2018-06-04T10:55:11.487Z,27.10
2018-06-04T10:57:39.895Z,26.70
2018-06-04T11:00:09.282Z,26.40
2018-06-04T11:02:37.771Z,26.40
2018-06-04T11:05:06.135Z,26.40
2018-06-04T11:07:34.517Z,26.80
2018-06-04T11:10:02.875Z,27.00
2018-06-04T11:12:31.329Z,27.10
2018-06-04T11:17:27.823Z,27.60
2018-06-04T11:19:58.196Z,27.80
2018-06-04T11:22:26.634Z,27.90
2018-06-04T11:24:55.039Z,27.30
2018-06-04T11:27:23.480Z,26.80
2018-06-04T11:29:51.856Z,26.30
2018-06-04T11:32:20.236Z,26.10
2018-06-04T11:34:48.590Z,25.80
2018-06-04T11:37:16.999Z,25.60
2018-06-04T11:39:46.140Z,25.70
2018-06-04T11:42:14.649Z,25.50
2018-06-04T11:44:43.617Z,25.60
2018-06-04T11:47:13.049Z,25.60
2018-06-04T11:49:41.455Z,25.80
2018-06-04T11:52:09.918Z,26.50
2018-06-04T11:54:38.377Z,27.40
2018-06-04T11:57:07.344Z,27.40
2018-06-04T11:59:35.784Z,27.60
2018-06-04T12:02:04.174Z,27.50
2018-06-04T12:04:32.848Z,27.20
2018-06-04T12:07:01.269Z,27.00
2018-06-04T12:09:29.704Z,26.70
2018-06-04T12:11:58.233Z,26.70
2018-06-04T12:14:27.253Z,26.70
2018-06-04T12:16:57.895Z,26.80
2018-06-04T12:19:26.397Z,27.30
2018-06-04T12:21:55.576Z,28.70
2018-06-04T12:24:29.201Z,29.20
2018-06-04T12:26:57.599Z,28.40
2018-06-04T12:29:26.003Z,28.40
2018-06-04T12:31:55.394Z,29.50
2018-06-04T12:34:24.647Z,30.00
2018-06-04T12:36:53.133Z,30.50
2018-06-04T12:39:21.527Z,31.10
2018-06-04T12:41:49.946Z,31.20
2018-06-04T12:44:18.390Z,31.00
2018-06-04T12:46:46.808Z,31.20
2018-06-04T12:49:15.294Z,32.30
2018-06-04T12:51:45.271Z,32.90
2018-06-04T12:56:41.826Z,32.80
2018-06-04T13:01:39.068Z,31.80
2018-06-04T13:04:07.481Z,30.80
2018-06-04T13:06:35.863Z,30.60
2018-06-04T13:09:05.968Z,30.50
2018-06-04T13:11:35.526Z,30.80
2018-06-04T13:14:04.376Z,30.80
2018-06-04T13:16:32.832Z,30.70
2018-06-04T13:19:02.809Z,30.60
2018-06-04T13:21:31.398Z,30.70
2018-06-04T13:24:01.038Z,30.50
2018-06-04T13:26:29.453Z,31.00
2018-06-04T13:28:57.925Z,31.90
2018-06-04T13:31:27.470Z,32.60
2018-06-04T13:33:56.606Z,32.20
2018-06-04T13:36:26.600Z,32.70
2018-06-04T13:38:55.006Z,33.70
2018-06-04T13:41:23.467Z,34.00
2018-06-04T13:43:52.035Z,34.00
2018-06-04T13:46:20.433Z,34.10
2018-06-04T13:48:49.343Z,33.50
2018-06-04T13:51:17.929Z,33.10
2018-06-04T13:53:46.322Z,32.30
2018-06-04T13:56:14.742Z,32.50
2018-06-04T13:58:43.081Z,33.20
2018-06-04T14:01:12.139Z,32.60
2018-06-04T14:03:40.558Z,31.80
2018-06-04T14:06:09.833Z,32.00
2018-06-04T14:08:38.290Z,32.90
2018-06-04T14:11:06.689Z,33.70
2018-06-04T14:13:36.179Z,33.80
2018-06-04T14:16:04.636Z,33.70
2018-06-04T14:18:33.733Z,33.10
2018-06-04T14:21:02.660Z,33.30
2018-06-04T14:23:31.081Z,33.40
2018-06-04T14:25:59.596Z,33.10
2018-06-04T14:28:27.983Z,33.10
2018-06-04T14:30:56.435Z,33.70
2018-06-04T14:33:25.420Z,33.70
2018-06-04T14:35:53.953Z,33.70
2018-06-04T14:38:22.378Z,33.90
2018-06-04T14:40:50.703Z,33.80
2018-06-04T14:43:19.706Z,34.70
2018-06-04T14:45:48.928Z,35.00
2018-06-04T14:48:18.639Z,34.80
2018-06-04T14:50:47.087Z,33.10
2018-06-04T14:53:15.495Z,32.80
2018-06-04T14:55:44.012Z,32.90
2018-06-04T14:58:12.472Z,33.40
2018-06-04T15:00:40.939Z,32.90
2018-06-04T15:03:09.299Z,32.80
2018-06-04T15:05:38.470Z,31.80
2018-06-04T15:08:06.949Z,31.80
2018-06-04T15:10:35.328Z,32.50
2018-06-04T15:13:03.801Z,32.20
2018-06-04T15:15:32.309Z,32.10
2018-06-04T15:18:00.801Z,31.00
2018-06-04T15:20:29.194Z,29.30
2018-06-04T15:22:57.593Z,28.20
2018-06-04T15:25:26.040Z,27.90
2018-06-04T15:27:54.413Z,28.30
2018-06-04T15:30:22.882Z,29.20
2018-06-04T15:32:51.320Z,29.30
2018-06-04T15:35:19.828Z,29.80
2018-06-04T15:37:49.625Z,30.40
2018-06-04T15:40:18.242Z,31.00
2018-06-04T15:42:46.609Z,30.80
2018-06-04T15:45:15.507Z,31.10
2018-06-04T15:47:43.951Z,31.00
2018-06-04T15:50:12.359Z,31.60
2018-06-04T15:52:40.829Z,31.00
2018-06-04T15:55:09.318Z,30.80
2018-06-04T15:57:37.793Z,31.20
2018-06-04T16:00:06.189Z,31.20
2018-06-04T16:02:35.702Z,31.10
2018-06-04T16:05:04.085Z,31.40
2018-06-04T16:07:33.165Z,31.80
2018-06-04T16:10:01.571Z,31.80
2018-06-04T16:12:29.969Z,31.20
2018-06-04T16:14:58.930Z,31.00
2018-06-04T16:17:27.321Z,30.50
2018-06-04T16:22:23.796Z,31.10
2018-06-04T16:24:52.201Z,30.90
2018-06-04T16:27:21.311Z,30.60
2018-06-04T16:29:49.749Z,31.00
2018-06-04T16:32:18.167Z,31.20
2018-06-04T16:34:46.573Z,31.60
2018-06-04T16:37:14.954Z,32.00
2018-06-04T16:39:43.374Z,31.40
2018-06-04T16:42:11.824Z,30.50
2018-06-04T16:44:40.306Z,30.10
2018-06-04T16:47:08.705Z,29.70
2018-06-04T16:49:37.127Z,29.70
2018-06-04T16:52:06.217Z,30.20
2018-06-04T16:54:34.612Z,30.50
2018-06-04T16:57:03.043Z,30.30
2018-06-04T16:59:31.844Z,29.20
2018-06-04T17:02:00.132Z,28.50
2018-06-04T17:04:28.820Z,27.90
2018-06-04T17:06:57.209Z,27.90
2018-06-04T17:09:25.661Z,27.50
2018-06-04T17:11:54.052Z,27.80
2018-06-04T17:14:23.616Z,27.80
2018-06-04T17:16:52.012Z,27.80
2018-06-04T17:19:20.427Z,27.80
2018-06-04T17:21:48.829Z,27.90
2018-06-04T17:24:17.513Z,27.70
2018-06-04T17:26:45.983Z,26.90
2018-06-04T17:29:14.398Z,26.30
2018-06-04T17:31:42.822Z,26.00
2018-06-04T17:34:11.263Z,25.60
2018-06-04T17:36:39.805Z,25.30
2018-06-04T17:39:08.569Z,25.30
2018-06-04T17:41:43.081Z,25.40
2018-06-04T17:44:13.167Z,25.30
2018-06-04T17:46:41.582Z,23.40
2018-06-04T17:49:10.012Z,25.00
2018-06-04T17:54:07.178Z,24.60
2018-06-04T17:56:35.586Z,24.60
2018-06-04T17:59:04.043Z,24.40
2018-06-04T18:04:00.586Z,24.30
2018-06-04T18:06:29.042Z,24.20
2018-06-04T18:08:58.046Z,24.10
2018-06-04T18:11:26.496Z,23.90
2018-06-04T18:13:54.886Z,23.90
2018-06-04T18:16:23.253Z,23.80
2018-06-04T18:18:53.998Z,23.80
2018-06-04T18:21:26.271Z,23.80
2018-06-04T18:23:54.805Z,23.80
2018-06-04T18:28:51.520Z,23.80
2018-06-04T18:31:19.961Z,23.70
2018-06-04T18:33:48.401Z,23.70
2018-06-04T18:36:16.883Z,23.60
2018-06-04T18:38:45.318Z,23.60
2018-06-04T18:41:13.770Z,23.60
2018-06-04T18:43:42.350Z,23.50
2018-06-04T18:46:11.462Z,23.40
2018-06-04T18:48:44.556Z,23.30
2018-06-04T18:51:12.994Z,23.10
2018-06-04T18:53:41.441Z,22.90
2018-06-04T18:56:10.009Z,22.80
2018-06-04T18:58:39.570Z,22.70
2018-06-04T19:01:08.073Z,22.70
2018-06-04T19:03:36.570Z,22.60
2018-06-04T19:06:04.962Z,22.40
2018-06-04T19:08:33.421Z,22.30
2018-06-04T19:11:01.919Z,22.10
2018-06-04T19:13:30.469Z,22.00
2018-06-04T19:15:58.876Z,22.00
2018-06-04T19:18:27.321Z,22.10
2018-06-04T19:23:24.091Z,21.90
2018-06-04T19:25:52.625Z,21.80
2018-06-04T19:28:21.036Z,21.80
2018-06-04T19:30:50.110Z,21.70
2018-06-04T19:33:19.438Z,21.60
2018-06-04T19:35:48.599Z,21.70
2018-06-04T19:38:17.154Z,21.60
2018-06-04T19:40:45.614Z,21.50
2018-06-04T19:43:14.042Z,21.50
2018-06-04T19:45:42.508Z,21.50
2018-06-04T19:48:10.904Z,21.50
2018-06-04T19:50:39.280Z,21.30
2018-06-04T19:53:07.837Z,21.30
2018-06-04T19:55:36.457Z,21.20
2018-06-04T20:00:33.082Z,21.10
2018-06-04T20:03:01.489Z,21.10
2018-06-04T20:05:29.954Z,21.00
2018-06-04T20:07:58.432Z,21.00
2018-06-04T20:10:26.892Z,21.10
2018-06-04T20:12:55.394Z,21.00
2018-06-04T20:15:23.851Z,21.00
2018-06-04T20:17:52.348Z,21.00
2018-06-04T20:20:20.831Z,21.10
2018-06-04T20:22:49.479Z,21.10
2018-06-04T20:25:17.905Z,20.90
2018-06-04T20:27:46.325Z,20.80
2018-06-04T20:30:14.737Z,20.70
2018-06-04T20:32:43.138Z,20.70
2018-06-04T20:35:11.563Z,20.60
2018-06-04T20:37:39.972Z,20.40
2018-06-04T20:40:08.403Z,20.30
2018-06-04T20:42:36.838Z,20.30
2018-06-04T20:45:05.262Z,20.20
2018-06-04T20:47:33.675Z,20.10
2018-06-04T20:50:02.109Z,20.10
2018-06-04T20:52:30.488Z,19.90
2018-06-04T20:54:58.910Z,19.80
2018-06-04T20:57:28.357Z,19.60
2018-06-04T20:59:56.792Z,19.50
2018-06-04T21:02:25.192Z,19.40
2018-06-04T21:04:53.579Z,19.40
2018-06-04T21:07:21.994Z,19.30
2018-06-04T21:09:50.370Z,19.10
2018-06-04T21:12:18.798Z,18.90
2018-06-04T21:14:52.717Z,18.80
2018-06-04T21:17:28.150Z,18.70
2018-06-04T21:19:56.585Z,18.50
2018-06-04T21:22:25.053Z,18.50
2018-06-04T21:24:53.417Z,18.50
2018-06-04T21:27:25.842Z,18.50
2018-06-04T21:29:54.256Z,18.40
2018-06-04T21:32:22.659Z,18.50
2018-06-04T21:34:51.071Z,18.40
2018-06-04T21:37:19.930Z,18.40
2018-06-04T21:39:48.364Z,18.40
2018-06-04T21:42:16.798Z,18.30
2018-06-04T21:44:45.230Z,18.20
2018-06-04T21:47:14.355Z,18.20
2018-06-04T21:49:42.786Z,18.20
2018-06-04T21:52:11.281Z,18.20
2018-06-04T21:54:40.052Z,18.10
2018-06-04T21:59:36.585Z,18.00
2018-06-04T22:02:05.364Z,18.10
2018-06-04T22:04:33.967Z,18.00
2018-06-04T22:07:02.556Z,18.10
2018-06-04T22:09:31.009Z,18.10
2018-06-04T22:11:59.440Z,18.00
2018-06-04T22:14:27.893Z,18.00
2018-06-04T22:16:56.419Z,18.10
2018-06-04T22:19:24.717Z,18.10
2018-06-04T22:21:53.161Z,18.20
2018-06-04T22:24:21.609Z,18.10
2018-06-04T22:26:55.415Z,18.20
2018-06-04T22:29:26.445Z,18.10
2018-06-04T22:31:54.940Z,18.00
2018-06-04T22:34:23.393Z,18.00
2018-06-04T22:36:51.747Z,17.80
2018-06-04T22:39:20.195Z,17.80
2018-06-04T22:41:48.600Z,17.60
2018-06-04T22:44:17.072Z,17.50
2018-06-04T22:46:45.686Z,17.50
2018-06-04T22:49:14.082Z,17.40
2018-06-04T22:51:42.484Z,17.30
2018-06-04T22:54:13.652Z,17.30
2018-06-04T22:56:42.198Z,17.30
2018-06-04T22:59:10.584Z,17.40
2018-06-04T23:01:39.057Z,17.50
2018-06-04T23:04:07.617Z,17.50
2018-06-04T23:06:36.012Z,17.50
2018-06-04T23:09:06.614Z,17.40
2018-06-04T23:11:35.258Z,17.40
2018-06-04T23:14:03.653Z,17.50
2018-06-04T23:16:32.120Z,17.40
2018-06-04T23:21:28.671Z,17.30
2018-06-04T23:23:57.073Z,17.30
2018-06-04T23:26:25.438Z,17.30
2018-06-04T23:28:53.846Z,17.30
2018-06-04T23:31:22.853Z,17.30
2018-06-04T23:33:53.059Z,17.20
2018-06-04T23:36:21.491Z,17.10
2018-06-04T23:38:49.941Z,17.10
2018-06-04T23:41:18.328Z,17.00
2018-06-04T23:43:46.771Z,16.90
2018-06-04T23:46:15.177Z,16.80
2018-06-04T23:48:43.601Z,16.90
2018-06-04T23:51:12.705Z,16.90
2018-06-04T23:53:41.142Z,16.80
2018-06-04T23:56:09.541Z,16.80
2018-06-04T23:58:37.898Z,16.90
